createdAt,value
2022-09-07T00:00:37.327Z,0.68
2022-09-07T00:03:04.496Z,1.08
2022-09-07T00:05:31.490Z,0.80
2022-09-07T00:07:58.710Z,0.88
2022-09-07T00:10:26.195Z,0.70
2022-09-07T00:12:52.949Z,1.00
2022-09-07T00:15:20.019Z,1.17
2022-09-07T00:17:46.507Z,0.70
2022-09-07T00:20:13.119Z,1.30
2022-09-07T00:22:39.661Z,0.60
2022-09-07T00:25:06.623Z,0.73
2022-09-07T00:27:33.143Z,1.58
2022-09-07T00:29:59.687Z,1.15
2022-09-07T00:32:26.263Z,0.90
2022-09-07T00:34:52.806Z,0.85
2022-09-07T00:37:19.311Z,0.73
2022-09-07T00:39:45.953Z,1.27
2022-09-07T00:42:12.549Z,0.70
2022-09-07T00:44:42.236Z,1.48
2022-09-07T00:47:15.846Z,1.05
2022-09-07T00:49:45.798Z,0.90
2022-09-07T00:52:13.343Z,1.23
2022-09-07T00:54:44.034Z,0.90
2022-09-07T00:57:11.559Z,1.08
2022-09-07T00:59:43.791Z,1.40
2022-09-07T01:02:12.399Z,0.65
2022-09-07T01:04:39.447Z,1.02
2022-09-07T01:07:06.324Z,1.10
2022-09-07T01:09:33.344Z,0.98
2022-09-07T01:12:01.330Z,0.57
2022-09-07T01:14:35.495Z,1.25
2022-09-07T01:17:01.971Z,0.50
2022-09-07T01:19:56.506Z,0.60
2022-09-07T01:22:41.091Z,0.90
2022-09-07T01:25:18.827Z,0.68
2022-09-07T01:27:48.270Z,0.77
2022-09-07T01:30:18.198Z,0.57
2022-09-07T01:33:05.432Z,0.52
2022-09-07T01:35:45.176Z,0.85
2022-09-07T01:38:23.463Z,0.60
2022-09-07T01:41:04.533Z,0.73
2022-09-07T01:43:48.130Z,0.60
2022-09-07T01:46:24.568Z,0.55
2022-09-07T01:48:55.469Z,0.50
2022-09-07T01:51:27.045Z,1.35
2022-09-07T01:53:58.589Z,1.00
2022-09-07T01:56:35.213Z,1.02
2022-09-07T01:59:13.366Z,0.60
2022-09-07T02:01:49.913Z,0.57
2022-09-07T02:04:21.955Z,0.50
2022-09-07T02:06:53.128Z,0.60
2022-09-07T02:09:31.805Z,0.50
2022-09-07T02:12:03.260Z,0.43
2022-09-07T02:14:36.549Z,0.80
2022-09-07T02:17:17.189Z,0.45
2022-09-07T02:19:53.259Z,1.65
2022-09-07T02:22:25.042Z,0.50
2022-09-07T02:24:56.086Z,0.40
2022-09-07T02:27:33.527Z,0.70
2022-09-07T02:30:00.073Z,0.50
2022-09-07T02:32:26.583Z,0.30
2022-09-07T02:34:53.071Z,0.50
2022-09-07T02:37:20.823Z,1.10
2022-09-07T02:39:49.243Z,0.30
2022-09-07T02:42:15.800Z,0.57
2022-09-07T02:44:45.531Z,0.82
2022-09-07T02:47:45.905Z,0.50
2022-09-07T02:50:43.448Z,0.40
2022-09-07T02:53:24.973Z,0.50
2022-09-07T02:56:09.734Z,0.40
2022-09-07T02:59:01.350Z,0.35
2022-09-07T03:02:00.994Z,0.70
2022-09-07T03:04:46.926Z,0.98
2022-09-07T03:07:21.346Z,1.35
2022-09-07T03:09:51.132Z,0.50
2022-09-07T03:12:17.761Z,0.40
2022-09-07T03:14:44.329Z,0.40
2022-09-07T03:17:11.546Z,0.60
2022-09-07T03:19:38.336Z,0.80
2022-09-07T03:22:05.901Z,0.40
2022-09-07T03:24:32.641Z,0.40
2022-09-07T03:26:59.203Z,0.38
2022-09-07T03:29:25.961Z,0.30
2022-09-07T03:31:52.513Z,0.47
2022-09-07T03:34:19.029Z,0.30
2022-09-07T03:36:45.603Z,0.52
2022-09-07T03:39:13.182Z,0.45
2022-09-07T03:41:39.912Z,0.50
2022-09-07T03:44:07.595Z,0.45
2022-09-07T03:46:34.961Z,0.40
2022-09-07T03:49:01.505Z,0.40
2022-09-07T03:51:28.040Z,0.55
2022-09-07T03:53:54.602Z,0.60
2022-09-07T03:56:23.092Z,0.73
2022-09-07T03:58:51.452Z,0.70
2022-09-07T04:01:23.549Z,0.50
2022-09-07T04:03:50.683Z,0.50
2022-09-07T04:06:18.238Z,0.50
2022-09-07T04:08:45.264Z,0.50
2022-09-07T04:11:17.040Z,0.32
2022-09-07T04:13:44.679Z,0.63
2022-09-07T04:16:23.107Z,0.70
2022-09-07T04:18:50.487Z,0.55
2022-09-07T04:21:24.930Z,0.70
2022-09-07T04:23:51.775Z,0.75
2022-09-07T04:26:30.833Z,0.50
2022-09-07T04:28:58.335Z,0.47
2022-09-07T04:31:25.604Z,0.50
2022-09-07T04:33:52.979Z,0.60
2022-09-07T04:36:20.328Z,0.40
2022-09-07T04:38:48.166Z,0.40
2022-09-07T04:41:17.832Z,0.52
2022-09-07T04:43:46.053Z,0.30
2022-09-07T04:46:36.765Z,0.50
2022-09-07T04:49:09.481Z,0.50
2022-09-07T04:51:37.649Z,0.63
2022-09-07T04:54:04.610Z,0.50
2022-09-07T04:56:32.065Z,0.60
2022-09-07T04:59:00.661Z,0.60
2022-09-07T05:01:27.830Z,0.68
2022-09-07T05:03:54.480Z,1.15
2022-09-07T05:06:22.380Z,0.70
2022-09-07T05:08:51.599Z,0.68
2022-09-07T05:11:19.618Z,1.00
2022-09-07T05:13:46.338Z,0.75
2022-09-07T05:16:21.191Z,0.60
2022-09-07T05:21:20.851Z,0.70
2022-09-07T05:23:51.076Z,0.65
2022-09-07T05:26:18.972Z,0.40
2022-09-07T05:28:45.877Z,0.60
2022-09-07T05:36:40.784Z,0.50
2022-09-07T05:39:08.622Z,0.47
2022-09-07T05:41:35.510Z,0.38
2022-09-07T05:46:48.951Z,0.47
2022-09-07T05:49:15.429Z,1.40
2022-09-07T05:51:41.926Z,1.25
2022-09-07T05:54:08.416Z,0.90
2022-09-07T05:56:35.980Z,0.85
2022-09-07T05:59:02.691Z,0.50
2022-09-07T06:01:29.295Z,0.80
2022-09-07T06:03:55.800Z,0.85
2022-09-07T06:06:22.341Z,1.17
2022-09-07T06:08:51.186Z,0.88
2022-09-07T06:11:21.071Z,0.82
2022-09-07T06:13:48.400Z,1.13
2022-09-07T06:16:16.332Z,0.95
2022-09-07T06:18:45.622Z,0.88
2022-09-07T06:21:14.911Z,1.00
2022-09-07T06:23:42.735Z,0.80
2022-09-07T06:26:10.060Z,0.95
2022-09-07T06:28:46.715Z,0.82
2022-09-07T06:31:17.849Z,1.00
2022-09-07T06:33:45.464Z,1.25
2022-09-07T06:36:17.177Z,1.15
2022-09-07T06:38:45.978Z,0.98
2022-09-07T06:44:02.465Z,1.00
2022-09-07T06:49:15.510Z,0.65
2022-09-07T06:51:42.094Z,0.90
2022-09-07T06:56:56.212Z,0.98
2022-09-07T06:59:22.716Z,0.70
2022-09-07T07:01:49.220Z,1.00
2022-09-07T07:04:15.785Z,0.82
2022-09-07T07:06:42.474Z,0.80
2022-09-07T07:09:12.854Z,0.82
2022-09-07T07:11:39.371Z,1.05
2022-09-07T07:14:06.005Z,1.80
2022-09-07T07:16:32.698Z,1.80
2022-09-07T07:18:59.362Z,1.40
2022-09-07T07:21:26.015Z,1.35
2022-09-07T07:23:53.701Z,1.85
2022-09-07T07:26:23.770Z,1.55
2022-09-07T07:31:26.854Z,1.50
2022-09-07T07:36:38.204Z,2.40
2022-09-07T07:39:05.312Z,2.40
2022-09-07T07:44:19.710Z,3.10
2022-09-07T07:46:51.107Z,2.30
2022-09-07T07:49:17.855Z,2.55
2022-09-07T07:54:34.633Z,3.05
2022-09-07T07:57:01.162Z,2.80
2022-09-07T07:59:27.702Z,2.28
2022-09-07T08:01:54.314Z,2.72
2022-09-07T08:04:20.887Z,3.42
2022-09-07T08:06:47.393Z,2.80
2022-09-07T08:09:13.941Z,2.83
2022-09-07T08:11:40.713Z,2.70
2022-09-07T08:14:08.636Z,3.15
2022-09-07T08:16:36.259Z,2.53
2022-09-07T08:19:03.417Z,2.85
2022-09-07T08:21:29.997Z,2.92
2022-09-07T08:23:56.722Z,3.00
2022-09-07T08:26:23.175Z,3.17
2022-09-07T08:28:49.630Z,3.25
2022-09-07T08:31:17.421Z,2.97
2022-09-07T08:33:44.768Z,2.92
2022-09-07T08:36:14.044Z,2.88
2022-09-07T08:38:40.904Z,3.22
2022-09-07T08:41:35.392Z,3.42
2022-09-07T08:44:18.542Z,3.30
2022-09-07T08:46:54.797Z,3.55
2022-09-07T08:49:47.545Z,3.88
2022-09-07T08:52:18.136Z,3.60
2022-09-07T08:54:58.566Z,3.42
2022-09-07T08:57:31.260Z,3.13
2022-09-07T09:00:14.280Z,4.35
2022-09-07T09:02:44.242Z,3.50
2022-09-07T09:05:29.691Z,3.72
2022-09-07T09:08:18.317Z,4.20
2022-09-07T09:11:11.996Z,3.85
2022-09-07T09:13:55.229Z,4.22
2022-09-07T09:16:31.384Z,4.57
2022-09-07T09:19:16.093Z,4.82
2022-09-07T09:21:43.654Z,4.43
2022-09-07T09:24:17.790Z,4.65
2022-09-07T09:29:23.327Z,5.15
2022-09-07T09:31:49.813Z,4.53
2022-09-07T09:34:21.169Z,5.07
2022-09-07T09:36:52.565Z,5.00
2022-09-07T09:39:29.863Z,4.93
2022-09-07T09:42:13.114Z,4.38
2022-09-07T09:44:39.775Z,4.90
2022-09-07T09:49:54.092Z,4.38
2022-09-07T09:52:33.624Z,4.65
2022-09-07T09:55:33.101Z,4.65
2022-09-07T10:06:19.389Z,4.68
2022-09-07T10:08:59.244Z,4.40
2022-09-07T10:14:46.683Z,3.67
2022-09-07T10:17:37.239Z,3.85
2022-09-07T10:20:21.625Z,3.60
2022-09-07T10:22:54.391Z,3.50
2022-09-07T10:25:37.491Z,3.55
2022-09-07T10:28:10.949Z,3.75
2022-09-07T10:31:03.460Z,3.38
2022-09-07T10:37:06.043Z,3.75
2022-09-07T10:39:39.658Z,3.50
2022-09-07T10:42:09.060Z,3.88
2022-09-07T10:44:46.178Z,4.22
2022-09-07T10:47:50.284Z,3.53
2022-09-07T10:50:31.259Z,2.95
2022-09-07T10:53:41.181Z,2.65
2022-09-07T10:56:15.113Z,2.35
2022-09-07T10:59:03.891Z,2.33
2022-09-07T11:01:39.776Z,2.30
2022-09-07T11:04:06.346Z,2.78
2022-09-07T11:06:39.441Z,3.25
2022-09-07T11:09:21.436Z,2.53
2022-09-07T11:12:04.387Z,2.40
2022-09-07T11:14:42.426Z,2.53
2022-09-07T11:17:18.460Z,2.38
2022-09-07T11:19:52.436Z,1.90
2022-09-07T11:22:32.198Z,1.20
2022-09-07T11:25:32.637Z,1.77
2022-09-07T11:28:07.456Z,1.15
2022-09-07T11:30:42.794Z,1.30
2022-09-07T11:33:21.800Z,1.98
2022-09-07T11:36:02.242Z,0.90
2022-09-07T11:38:59.565Z,1.40
2022-09-07T11:41:33.931Z,1.40
2022-09-07T11:44:26.275Z,1.40
2022-09-07T11:46:59.843Z,0.90
2022-09-07T11:49:26.639Z,1.20
2022-09-07T11:52:04.961Z,1.27
2022-09-07T11:54:44.139Z,1.33
2022-09-07T11:57:24.643Z,2.22
2022-09-07T11:59:56.122Z,1.00
2022-09-07T12:03:00.015Z,1.00
2022-09-07T12:06:05.823Z,0.88
2022-09-07T12:08:53.663Z,1.45
2022-09-07T12:11:48.623Z,1.15
2022-09-07T12:14:21.060Z,0.95
2022-09-07T12:17:11.721Z,0.77
2022-09-07T12:19:38.398Z,1.52
2022-09-07T12:22:05.455Z,0.80
2022-09-07T12:24:48.488Z,1.90
2022-09-07T12:27:20.978Z,1.10
2022-09-07T12:29:48.048Z,0.73
2022-09-07T12:32:55.217Z,1.10
2022-09-07T12:35:28.713Z,1.10
2022-09-07T12:38:02.746Z,1.00
2022-09-07T12:40:29.161Z,0.98
2022-09-07T12:43:13.876Z,1.15
2022-09-07T12:45:40.378Z,1.02
2022-09-07T12:48:16.055Z,1.08
2022-09-07T12:51:00.513Z,0.80
2022-09-07T12:53:29.986Z,0.90
2022-09-07T12:58:46.696Z,0.85
2022-09-07T13:01:51.364Z,1.13
2022-09-07T13:05:00.068Z,0.70
2022-09-07T13:07:39.021Z,1.00
2022-09-07T13:10:23.603Z,0.73
2022-09-07T13:12:56.476Z,1.35
2022-09-07T13:15:41.390Z,0.75
2022-09-07T13:18:31.448Z,0.80
2022-09-07T13:21:07.260Z,0.90
2022-09-07T13:23:37.950Z,0.40
2022-09-07T13:26:08.719Z,0.98
2022-09-07T13:28:58.019Z,0.80
2022-09-07T13:31:53.015Z,1.02
2022-09-07T13:34:34.993Z,0.70
2022-09-07T13:37:03.309Z,0.65
2022-09-07T13:39:38.907Z,0.95
2022-09-07T13:42:06.496Z,1.02
2022-09-07T13:44:34.467Z,0.70
2022-09-07T13:47:31.395Z,0.68
2022-09-07T13:50:12.336Z,0.90
2022-09-07T13:52:48.024Z,0.77
2022-09-07T13:55:45.555Z,0.73
2022-09-07T13:58:19.763Z,0.50
2022-09-07T14:01:00.252Z,0.60
2022-09-07T14:03:30.847Z,0.85
2022-09-07T14:06:20.541Z,0.80
2022-09-07T14:08:59.258Z,1.00
2022-09-07T14:11:36.323Z,0.90
2022-09-07T14:14:25.988Z,1.17
2022-09-07T14:17:01.394Z,0.73
2022-09-07T14:19:46.340Z,0.60
2022-09-07T14:22:19.177Z,0.90
2022-09-07T14:24:54.403Z,1.10
2022-09-07T14:27:22.619Z,0.95
2022-09-07T14:29:49.256Z,0.80
2022-09-07T14:32:20.049Z,2.08
2022-09-07T14:34:47.110Z,0.88
2022-09-07T14:37:16.389Z,0.77
2022-09-07T14:39:46.746Z,0.90
2022-09-07T14:42:17.277Z,1.48
2022-09-07T14:44:44.924Z,0.85
2022-09-07T14:47:30.866Z,0.75
2022-09-07T14:50:05.777Z,0.70
2022-09-07T14:52:43.009Z,0.90
2022-09-07T14:55:30.783Z,0.50
2022-09-07T14:58:22.835Z,0.80
2022-09-07T15:04:01.759Z,0.80
2022-09-07T15:09:38.097Z,0.80
2022-09-07T15:12:14.066Z,0.82
2022-09-07T15:14:40.567Z,0.70
2022-09-07T15:20:37.310Z,0.57
2022-09-07T15:23:05.985Z,0.83
2022-09-07T15:25:34.926Z,1.48
2022-09-07T15:28:01.630Z,0.80
2022-09-07T15:30:28.467Z,0.80
2022-09-07T15:32:56.848Z,1.55
2022-09-07T15:35:23.856Z,0.93
2022-09-07T15:38:58.961Z,0.70
2022-09-07T15:41:18.139Z,1.00
2022-09-07T15:43:37.920Z,1.42
2022-09-07T15:46:05.015Z,0.90
2022-09-07T15:48:31.716Z,1.00
2022-09-07T15:54:18.233Z,0.90
2022-09-07T15:57:48.290Z,0.70
2022-09-07T15:59:31.336Z,0.90
2022-09-07T16:01:58.635Z,0.70
2022-09-07T16:04:25.506Z,0.70
2022-09-07T16:06:52.060Z,1.30
2022-09-07T16:09:21.703Z,0.80
2022-09-07T16:11:50.171Z,0.90
2022-09-07T16:14:17.545Z,0.88
2022-09-07T16:19:34.977Z,0.80
2022-09-07T16:22:02.177Z,0.93
2022-09-07T16:24:28.875Z,0.93
2022-09-07T16:26:55.462Z,1.15
2022-09-07T16:29:21.975Z,0.73
2022-09-07T16:34:35.297Z,0.60
2022-09-07T16:37:02.035Z,0.68
2022-09-07T16:39:29.142Z,1.23
2022-09-07T16:41:56.169Z,0.85
2022-09-07T16:44:23.128Z,1.02
2022-09-07T16:46:50.421Z,1.23
2022-09-07T16:49:17.695Z,0.50
2022-09-07T16:51:45.748Z,1.30
2022-09-07T16:54:13.648Z,1.30
2022-09-07T16:56:40.161Z,0.70
2022-09-07T16:59:09.496Z,0.82
2022-09-07T17:01:38.019Z,1.23
2022-09-07T17:04:10.396Z,0.93
2022-09-07T17:06:37.995Z,0.80
2022-09-07T17:09:04.689Z,0.90
2022-09-07T17:11:34.747Z,1.15
2022-09-07T17:14:01.975Z,1.23
2022-09-07T17:16:32.079Z,0.70
2022-09-07T17:21:50.134Z,1.15
2022-09-07T17:24:17.230Z,0.90
2022-09-07T17:26:44.037Z,0.73
2022-09-07T17:29:13.086Z,0.93
2022-09-07T17:34:26.432Z,1.75
2022-09-07T17:36:52.922Z,0.80
2022-09-07T17:39:19.899Z,0.82
2022-09-07T17:41:52.713Z,0.82
2022-09-07T17:44:19.410Z,0.88
2022-09-07T17:46:46.048Z,1.40
2022-09-07T17:49:14.404Z,0.70
2022-09-07T17:51:41.395Z,1.10
2022-09-07T17:54:11.984Z,0.77
2022-09-07T17:56:40.299Z,2.10
2022-09-07T18:01:56.501Z,0.73
2022-09-07T18:04:23.598Z,0.70
2022-09-07T18:06:50.450Z,1.08
2022-09-07T18:09:19.808Z,1.45
2022-09-07T18:11:48.115Z,0.52
2022-09-07T18:14:16.290Z,0.80
2022-09-07T18:16:45.462Z,0.80
2022-09-07T18:19:12.692Z,1.63
2022-09-07T18:21:42.065Z,0.90
2022-09-07T18:24:16.647Z,0.77
2022-09-07T18:26:44.560Z,1.25
2022-09-07T18:29:28.193Z,0.80
2022-09-07T18:31:56.997Z,0.80
2022-09-07T18:34:23.577Z,0.90
2022-09-07T18:36:50.300Z,1.00
2022-09-07T18:39:16.892Z,1.45
2022-09-07T18:41:43.392Z,0.80
2022-09-07T18:46:56.445Z,0.85
2022-09-07T18:49:24.529Z,1.33
2022-09-07T18:54:37.852Z,1.30
2022-09-07T18:57:04.469Z,0.77
2022-09-07T18:59:31.024Z,0.95
2022-09-07T19:02:03.027Z,1.08
2022-09-07T19:07:17.963Z,1.00
2022-09-07T19:09:44.507Z,0.80
2022-09-07T19:12:11.056Z,1.05
2022-09-07T19:14:37.642Z,0.90
2022-09-07T19:17:04.294Z,0.93
2022-09-07T19:19:31.045Z,1.30
2022-09-07T19:21:58.261Z,0.85
2022-09-07T19:24:25.767Z,1.20
2022-09-07T19:26:54.760Z,0.75
2022-09-07T19:29:25.187Z,0.82
2022-09-07T19:32:06.910Z,0.70
2022-09-07T19:34:36.240Z,1.00
2022-09-07T19:37:03.987Z,0.90
2022-09-07T19:39:30.610Z,0.80
2022-09-07T19:41:57.234Z,1.17
2022-09-07T19:44:23.746Z,0.90
2022-09-07T19:46:50.661Z,0.90
2022-09-07T19:49:17.674Z,1.00
2022-09-07T19:51:44.217Z,0.90
2022-09-07T19:54:11.938Z,1.10
2022-09-07T19:56:40.317Z,1.67
2022-09-07T19:59:07.434Z,1.02
2022-09-07T20:01:35.117Z,1.27
2022-09-07T20:04:04.565Z,1.10
2022-09-07T20:06:35.705Z,1.20
2022-09-07T20:09:02.332Z,0.88
2022-09-07T20:11:29.137Z,0.82
2022-09-07T20:13:57.137Z,1.23
2022-09-07T20:16:24.338Z,1.50
2022-09-07T20:18:51.458Z,1.17
2022-09-07T20:21:21.453Z,1.63
2022-09-07T20:23:48.731Z,1.80
2022-09-07T20:26:17.793Z,1.52
2022-09-07T20:28:44.862Z,1.20
2022-09-07T20:31:16.262Z,1.42
2022-09-07T20:33:44.886Z,0.98
2022-09-07T20:36:13.821Z,1.55
2022-09-07T20:38:48.545Z,0.90
2022-09-07T20:41:18.342Z,1.08
2022-09-07T20:43:45.061Z,1.10
2022-09-07T20:46:11.713Z,1.20
2022-09-07T20:48:39.211Z,1.10
2022-09-07T20:51:09.469Z,1.80
2022-09-07T20:53:37.105Z,1.27
2022-09-07T20:56:16.025Z,2.05
2022-09-07T20:58:43.707Z,1.75
2022-09-07T21:01:14.774Z,1.70
2022-09-07T21:03:51.497Z,1.80
2022-09-07T21:06:19.113Z,1.80
2022-09-07T21:08:47.184Z,2.58
2022-09-07T21:11:15.467Z,2.28
2022-09-07T21:13:42.825Z,1.50
2022-09-07T21:16:16.529Z,2.20
2022-09-07T21:18:44.523Z,1.38
2022-09-07T21:21:20.457Z,1.50
2022-09-07T21:23:47.935Z,1.75
2022-09-07T21:26:14.689Z,1.42
2022-09-07T21:28:41.167Z,1.85
2022-09-07T21:31:09.142Z,1.48
2022-09-07T21:33:37.327Z,1.90
2022-09-07T21:36:12.668Z,1.98
2022-09-07T21:38:41.083Z,1.80
2022-09-07T21:41:09.735Z,1.40
2022-09-07T21:43:36.923Z,1.50
2022-09-07T21:46:14.110Z,1.80
2022-09-07T21:48:40.797Z,1.65
2022-09-07T21:51:08.015Z,1.83
2022-09-07T21:53:35.275Z,2.35
2022-09-07T21:56:04.787Z,2.67
2022-09-07T21:58:32.667Z,2.45
2022-09-07T22:01:03.370Z,1.73
2022-09-07T22:03:30.024Z,1.85
2022-09-07T22:05:56.484Z,1.70
2022-09-07T22:08:22.961Z,1.70
2022-09-07T22:10:49.405Z,2.17
2022-09-07T22:13:15.912Z,1.90
2022-09-07T22:15:42.664Z,1.85
2022-09-07T22:18:12.384Z,2.05
2022-09-07T22:20:39.431Z,2.30
2022-09-07T22:23:06.106Z,2.70
2022-09-07T22:25:33.326Z,2.50
2022-09-07T22:28:00.220Z,1.85
2022-09-07T22:30:27.208Z,1.55
2022-09-07T22:32:53.751Z,2.08
2022-09-07T22:35:21.437Z,2.50
2022-09-07T22:37:47.917Z,2.42
2022-09-07T22:40:14.869Z,2.45
2022-09-07T22:42:41.918Z,3.53
2022-09-07T22:45:09.070Z,4.05
2022-09-07T22:47:35.557Z,2.95
2022-09-07T22:50:02.020Z,5.05
2022-09-07T22:52:28.513Z,3.08
2022-09-07T22:54:54.961Z,2.80
2022-09-07T22:57:21.434Z,3.67
2022-09-07T22:59:47.880Z,3.30
2022-09-07T23:02:14.352Z,2.78
2022-09-07T23:04:41.260Z,3.13
2022-09-07T23:07:07.957Z,3.70
2022-09-07T23:09:34.531Z,3.83
2022-09-07T23:12:01.065Z,2.90
2022-09-07T23:14:27.625Z,2.97
2022-09-07T23:16:54.101Z,4.05
2022-09-07T23:19:21.057Z,2.38
2022-09-07T23:21:47.761Z,2.70
2022-09-07T23:24:16.812Z,3.45
2022-09-07T23:26:44.061Z,3.20
2022-09-07T23:29:12.575Z,4.28
2022-09-07T23:31:40.208Z,3.50
2022-09-07T23:34:07.777Z,3.90
2022-09-07T23:36:34.313Z,4.50
2022-09-07T23:39:01.319Z,4.53
2022-09-07T23:41:28.885Z,4.70
2022-09-07T23:43:56.026Z,3.40
2022-09-07T23:46:23.245Z,3.67
2022-09-07T23:48:50.431Z,3.85
2022-09-07T23:51:22.729Z,3.17
2022-09-07T23:53:50.990Z,3.33
2022-09-07T23:56:17.483Z,5.38
2022-09-07T23:58:44.055Z,4.18
